Time;durP1;ratioP1;P1;durP2;ratioP2;P2;SDS_P1;SDS_P2;PMS_P1;PMS_P2;Temp;Humidity;BMP_temperature;BMP_pressure;BME280_temperature;BME280_humidity;BME280_pressure;Samples;Min_cycle;Max_cycle;Signal;HPM_P1;HPM_P2
2020/12/05 00:01:51;;;;;;;22.40;4.20;;;22.60;76.00;;;;;;5054330;28;20183;-77
2020/12/05 00:04:18;;;;;;;21.00;4.07;;;22.60;76.00;;;;;;5054573;28;20309;-77
2020/12/05 00:06:46;;;;;;;16.50;3.30;;;22.60;75.80;;;;;;5068560;28;20191;-76
2020/12/05 00:09:13;;;;;;;14.50;3.47;;;22.80;76.00;;;;;;5074548;28;20357;-80
2020/12/05 00:11:41;;;;;;;18.17;3.80;;;22.90;75.50;;;;;;5077369;28;20186;-79
2020/12/05 00:14:08;;;;;;;19.20;3.97;;;22.90;74.50;;;;;;5076982;28;20168;-82
2020/12/05 00:16:36;;;;;;;15.23;4.20;;;22.90;74.20;;;;;;5078401;28;20171;-79
2020/12/05 00:19:03;;;;;;;22.90;3.93;;;23.00;74.50;;;;;;5078687;28;20194;-80
2020/12/05 00:21:30;;;;;;;14.20;4.13;;;23.00;74.40;;;;;;5076627;28;20233;-82
2020/12/05 00:23:59;;;;;;;17.43;3.67;;;23.00;74.60;;;;;;5076743;28;20222;-82
2020/12/05 00:26:26;;;;;;;23.53;4.47;;;22.90;75.10;;;;;;5077614;28;20183;-76
2020/12/05 00:28:56;;;;;;;18.57;4.93;;;23.00;74.80;;;;;;5077756;28;20310;-78
2020/12/05 00:31:23;;;;;;;16.47;3.97;;;23.10;74.40;;;;;;5078347;28;20179;-80
2020/12/05 00:33:51;;;;;;;22.07;4.93;;;23.10;74.60;;;;;;5077868;28;20176;-83
2020/12/05 00:36:20;;;;;;;20.03;4.07;;;23.10;74.90;;;;;;5077140;28;20531;-82
2020/12/05 00:38:47;;;;;;;18.70;3.80;;;23.10;75.10;;;;;;5076517;28;20205;-79
2020/12/05 00:41:18;;;;;;;16.47;3.90;;;23.10;75.20;;;;;;5076657;28;20567;-78
2020/12/05 00:43:46;;;;;;;15.93;4.00;;;23.10;75.00;;;;;;5078060;28;20228;-80
2020/12/05 00:46:13;;;;;;;22.40;4.13;;;23.00;75.50;;;;;;5075407;28;20538;-80
2020/12/05 00:48:41;;;;;;;21.27;4.67;;;23.00;75.50;;;;;;5073912;28;20211;-78
2020/12/05 00:51:12;;;;;;;16.17;3.90;;;23.00;75.80;;;;;;5072700;28;20540;-82
2020/12/05 00:53:40;;;;;;;19.37;4.47;;;23.20;75.60;;;;;;5073160;28;20975;-80
2020/12/05 00:56:07;;;;;;;21.67;5.10;;;23.20;74.90;;;;;;5072140;28;20550;-76
2020/12/05 00:58:35;;;;;;;15.77;3.53;;;23.10;75.10;;;;;;5072164;28;20524;-82
2020/12/05 01:01:03;;;;;;;17.87;4.77;;;22.90;75.60;;;;;;5073474;28;20192;-79
2020/12/05 01:03:32;;;;;;;16.73;4.53;;;23.00;76.20;;;;;;5074369;28;20175;-77
2020/12/05 01:05:59;;;;;;;18.77;5.00;;;23.10;75.90;;;;;;5073277;28;20176;-76
2020/12/05 01:08:27;;;;;;;20.50;5.23;;;23.20;75.30;;;;;;5073164;28;20230;-78
2020/12/05 01:10:54;;;;;;;22.43;5.03;;;23.40;75.20;;;;;;5060866;28;20180;-77
2020/12/05 01:13:21;;;;;;;18.60;4.30;;;23.80;74.20;;;;;;5051732;28;20318;-79
2020/12/05 01:15:49;;;;;;;21.30;4.27;;;24.10;72.90;;;;;;5052370;28;20669;-78
2020/12/05 01:18:16;;;;;;;18.83;5.07;;;24.50;71.30;;;;;;5052800;28;20183;-78
2020/12/05 01:20:43;;;;;;;21.70;4.77;;;24.60;70.80;;;;;;5052960;28;20626;-79
2020/12/05 01:23:11;;;;;;;24.00;4.97;;;24.60;70.80;;;;;;5053830;28;20183;-82
2020/12/05 01:25:38;;;;;;;19.17;4.30;;;24.60;70.80;;;;;;5055181;28;20281;-79
2020/12/05 01:28:05;;;;;;;21.00;5.17;;;24.40;71.20;;;;;;5053751;28;20218;-78
2020/12/05 01:30:36;;;;;;;13.90;4.87;;;24.50;71.00;;;;;;5054037;28;20215;-79
2020/12/05 01:33:03;;;;;;;19.97;5.27;;;24.40;70.70;;;;;;5053760;28;20194;-80
2020/12/05 01:35:31;;;;;;;18.40;4.60;;;24.40;71.20;;;;;;5053681;28;20172;-79
2020/12/05 01:37:58;;;;;;;22.90;5.47;;;24.50;70.90;;;;;;5053724;28;20658;-80
2020/12/05 01:40:26;;;;;;;21.67;5.80;;;24.50;70.70;;;;;;5054096;28;20168;-81
2020/12/05 01:42:59;;;;;;;22.00;6.67;;;24.40;70.60;;;;;;5055496;28;20182;-80
2020/12/05 01:45:27;;;;;;;20.77;6.60;;;24.30;70.60;;;;;;5055506;28;20702;-76
2020/12/05 01:47:54;;;;;;;22.20;6.80;;;24.30;71.00;;;;;;5053738;28;20668;-78
2020/12/05 01:50:22;;;;;;;17.10;6.93;;;24.40;71.30;;;;;;5053582;28;20263;-81
2020/12/05 01:52:52;;;;;;;22.90;7.53;;;24.60;71.00;;;;;;5054545;28;20172;-78
2020/12/05 01:55:20;;;;;;;20.03;7.20;;;24.60;70.60;;;;;;5057185;28;20175;-78
2020/12/05 01:57:48;;;;;;;20.53;6.60;;;24.70;70.60;;;;;;5072278;28;20167;-77
2020/12/05 02:00:15;;;;;;;21.07;6.70;;;24.80;70.40;;;;;;5073148;28;20191;-80
2020/12/05 02:02:42;;;;;;;19.63;6.70;;;25.00;70.10;;;;;;5073082;28;20171;-78
2020/12/05 02:05:43;;;;;;;17.03;6.53;;;25.20;69.20;;;;;;5074119;28;20699;-77
2020/12/05 02:08:21;;;;;;;22.93;5.67;;;25.20;68.90;;;;;;5077147;28;20227;-78
2020/12/05 02:10:50;;;;;;;18.73;5.67;;;25.10;68.70;;;;;;5077036;28;20250;-77
2020/12/05 02:13:40;;;;;;;18.33;5.70;;;25.10;69.10;;;;;;5076764;28;20268;-77
2020/12/05 02:16:07;;;;;;;25.17;6.33;;;25.20;69.00;;;;;;5076357;28;20179;-79
2020/12/05 02:18:37;;;;;;;17.97;6.13;;;25.20;69.30;;;;;;5075423;28;20179;-77
2020/12/05 02:21:05;;;;;;;21.37;5.50;;;25.40;68.80;;;;;;5076567;28;20179;-77
2020/12/05 02:23:33;;;;;;;19.50;6.60;;;25.50;68.40;;;;;;5076356;28;20566;-79
2020/12/05 02:26:05;;;;;;;19.13;6.90;;;25.40;68.10;;;;;;5076449;28;20508;-78
2020/12/05 02:28:34;;;;;;;19.27;6.03;;;25.30;68.30;;;;;;5076262;28;20203;-77
2020/12/05 02:31:02;;;;;;;18.90;6.53;;;25.40;68.10;;;;;;5076900;28;20176;-79
2020/12/05 02:33:29;;;;;;;20.70;5.60;;;25.40;68.10;;;;;;5076921;28;20205;-78
2020/12/05 02:35:57;;;;;;;20.20;6.57;;;25.40;67.20;;;;;;5075976;28;20572;-79
2020/12/05 02:38:55;;;;;;;20.17;5.73;;;25.50;67.90;;;;;;5077431;28;20590;-78
2020/12/05 02:41:24;;;;;;;16.40;5.30;;;25.60;66.80;;;;;;5067103;28;20183;-78
2020/12/05 02:43:52;;;;;;;14.90;5.97;;;25.50;67.10;;;;;;5076650;28;20637;-80
2020/12/05 02:46:20;;;;;;;20.07;6.13;;;25.60;66.80;;;;;;5076146;28;20171;-78
2020/12/05 02:48:52;;;;;;;20.77;8.27;;;25.40;68.10;;;;;;5076266;28;20294;-81
2020/12/05 02:51:19;;;;;;;20.67;8.33;;;25.20;68.70;;;;;;5076150;28;20160;-78
2020/12/05 02:53:47;;;;;;;21.80;9.27;;;25.10;69.80;;;;;;5076624;28;20179;-77
2020/12/05 02:56:18;;;;;;;24.27;8.77;;;25.20;70.10;;;;;;5076334;28;20717;-78
2020/12/05 02:58:46;;;;;;;25.93;9.47;;;24.90;70.30;;;;;;5076309;28;20300;-79
2020/12/05 03:01:14;;;;;;;24.03;9.00;;;24.80;70.60;;;;;;5076431;28;20250;-78
2020/12/05 03:03:42;;;;;;;23.53;9.37;;;24.80;71.40;;;;;;5075942;28;20701;-78
2020/12/05 03:06:09;;;;;;;25.40;10.93;;;24.90;71.00;;;;;;5076195;28;20170;-82
2020/12/05 03:08:36;;;;;;;24.53;12.13;;;24.90;71.30;;;;;;5077018;28;20296;-83
2020/12/05 03:11:04;;;;;;;25.07;11.83;;;24.90;71.80;;;;;;5067888;28;20224;-78
2020/12/05 03:13:31;;;;;;;22.70;11.87;;;24.90;71.60;;;;;;5055328;28;20203;-81
2020/12/05 03:15:59;;;;;;;27.20;12.17;;;24.90;71.50;;;;;;5054730;28;20717;-78
2020/12/05 03:18:26;;;;;;;21.77;11.43;;;25.10;71.00;;;;;;5055512;28;20187;-78
2020/12/05 03:20:53;;;;;;;26.53;12.07;;;25.00;71.50;;;;;;5055487;28;20172;-80
2020/12/05 03:23:21;;;;;;;27.63;12.67;;;25.00;71.50;;;;;;5055788;28;20168;-81
2020/12/05 03:25:48;;;;;;;27.17;13.43;;;24.90;71.80;;;;;;5055967;28;20172;-78
2020/12/05 03:28:16;;;;;;;21.87;13.23;;;25.00;72.00;;;;;;5054003;28;20286;-80
2020/12/05 03:30:43;;;;;;;30.53;15.30;;;24.90;71.60;;;;;;5056318;28;20654;-80
2020/12/05 03:33:12;;;;;;;25.93;14.80;;;24.80;71.70;;;;;;5056544;28;20176;-80
2020/12/05 03:35:40;;;;;;;26.07;14.10;;;24.70;72.50;;;;;;5055513;28;20206;-80
2020/12/05 03:38:08;;;;;;;28.53;13.70;;;24.70;72.90;;;;;;5055396;28;20196;-78
2020/12/05 03:40:39;;;;;;;30.40;15.00;;;24.70;72.80;;;;;;5064953;28;20752;-78
2020/12/05 03:43:07;;;;;;;27.37;14.40;;;24.70;72.40;;;;;;5075366;28;20171;-80
2020/12/05 03:45:34;;;;;;;31.80;14.17;;;24.70;72.70;;;;;;5075603;28;20187;-81
2020/12/05 03:48:01;;;;;;;28.50;14.80;;;24.60;73.20;;;;;;5075979;28;20214;-82
2020/12/05 03:50:29;;;;;;;28.67;14.30;;;24.50;73.60;;;;;;5075503;28;20651;-78
2020/12/05 03:52:56;;;;;;;34.90;13.93;;;24.50;73.70;;;;;;5062629;28;20243;-81
2020/12/05 03:55:24;;;;;;;29.90;14.57;;;24.30;74.10;;;;;;5070603;28;20192;-82
2020/12/05 03:57:51;;;;;;;29.43;14.37;;;24.20;74.60;;;;;;5062194;28;20179;-81
2020/12/05 04:00:18;;;;;;;30.13;14.40;;;24.30;74.80;;;;;;5057794;28;20172;-80
2020/12/05 04:02:46;;;;;;;33.67;14.70;;;24.20;74.80;;;;;;5061024;28;20175;-78
2020/12/05 04:05:13;;;;;;;31.23;16.10;;;24.20;75.30;;;;;;5072953;28;20175;-81
2020/12/05 04:07:40;;;;;;;31.27;14.83;;;24.20;76.60;;;;;;5078392;28;20205;-79
2020/12/05 04:10:08;;;;;;;30.93;15.03;;;24.20;76.30;;;;;;5076353;28;20176;-79
2020/12/05 04:12:35;;;;;;;30.20;15.33;;;24.30;76.90;;;;;;5078609;28;20581;-81
2020/12/05 04:15:03;;;;;;;32.90;15.63;;;24.40;77.50;;;;;;5079897;28;20179;-80
2020/12/05 04:17:31;;;;;;;35.00;16.00;;;24.30;77.30;;;;;;5078651;28;20175;-80
2020/12/05 04:19:59;;;;;;;28.53;15.70;;;24.20;77.10;;;;;;5078007;28;20178;-78
2020/12/05 04:22:27;;;;;;;31.83;15.60;;;24.20;77.80;;;;;;5077262;28;20567;-78
2020/12/05 04:24:54;;;;;;;35.33;16.13;;;24.10;78.20;;;;;;5077238;28;20218;-78
2020/12/05 04:27:22;;;;;;;31.77;14.33;;;24.10;79.00;;;;;;5077413;28;20203;-77
2020/12/05 04:29:50;;;;;;;30.37;15.60;;;24.00;77.70;;;;;;5077684;28;20207;-78
2020/12/05 04:32:18;;;;;;;30.87;14.53;;;24.00;78.50;;;;;;5078366;28;20181;-77
2020/12/05 04:34:47;;;;;;;30.00;15.53;;;24.00;78.30;;;;;;5078317;28;20167;-81
2020/12/05 04:37:14;;;;;;;30.43;13.97;;;24.10;78.30;;;;;;5078209;28;20309;-79
2020/12/05 04:39:41;;;;;;;24.33;13.00;;;24.10;77.90;;;;;;5078225;28;20190;-76
2020/12/05 04:42:12;;;;;;;28.63;13.20;;;24.20;77.70;;;;;;5077681;28;20195;-79
2020/12/05 04:44:39;;;;;;;30.27;13.57;;;24.30;77.20;;;;;;5078350;28;20171;-78
2020/12/05 04:47:11;;;;;;;33.27;17.00;;;24.30;77.20;;;;;;5077757;28;20220;-82
2020/12/05 04:49:38;;;;;;;25.50;10.63;;;24.30;77.30;;;;;;5075283;28;20214;-80
2020/12/05 04:52:40;;;;;;;22.40;9.73;;;24.40;77.50;;;;;;5074424;28;20543;-84
2020/12/05 04:55:09;;;;;;;22.03;9.00;;;24.40;77.30;;;;;;5066010;28;20187;-80
2020/12/05 04:57:48;;;;;;;23.40;9.40;;;24.40;77.10;;;;;;5076889;28;20220;-82
2020/12/05 05:00:17;;;;;;;24.70;8.43;;;24.50;77.00;;;;;;5077277;28;20170;-82
2020/12/05 05:02:45;;;;;;;21.53;8.23;;;24.50;76.70;;;;;;5077056;28;20240;-82
2020/12/05 05:05:15;;;;;;;23.00;8.33;;;24.50;77.00;;;;;;5079146;28;20180;-81
2020/12/05 05:07:50;;;;;;;23.03;8.40;;;24.40;76.60;;;;;;5076382;28;20175;-78
2020/12/05 05:10:22;;;;;;;19.80;8.23;;;24.30;76.90;;;;;;5076430;28;20182;-82
2020/12/05 05:12:50;;;;;;;24.00;8.90;;;24.30;77.60;;;;;;5073690;28;20675;-80
2020/12/05 05:15:28;;;;;;;27.60;9.30;;;24.20;78.40;;;;;;5079801;28;20252;-81
2020/12/05 05:18:00;;;;;;;23.27;8.17;;;24.10;79.50;;;;;;5080101;28;20574;-76
2020/12/05 05:20:29;;;;;;;19.23;8.47;;;24.00;79.20;;;;;;5073342;28;20156;-78
2020/12/05 05:23:17;;;;;;;20.77;8.33;;;23.90;79.60;;;;;;5072046;28;20175;-77
2020/12/05 05:25:57;;;;;;;18.70;7.73;;;23.90;79.80;;;;;;5058193;28;20581;-83
2020/12/05 05:28:31;;;;;;;27.73;9.03;;;23.90;80.50;;;;;;5069184;28;20207;-80
2020/12/05 05:31:08;;;;;;;24.37;8.67;;;23.90;80.60;;;;;;5074446;28;20187;-83
2020/12/05 05:33:43;;;;;;;23.87;8.40;;;23.90;81.20;;;;;;5072355;28;20210;-82
2020/12/05 05:36:21;;;;;;;22.97;8.57;;;23.90;81.10;;;;;;5071957;28;20183;-85
2020/12/05 05:39:04;;;;;;;24.37;9.20;;;23.90;81.30;;;;;;5063667;28;20179;-82
2020/12/05 05:41:33;;;;;;;25.53;8.43;;;23.90;81.90;;;;;;5071911;28;20211;-83
2020/12/05 05:44:03;;;;;;;22.00;9.50;;;23.90;81.10;;;;;;5076554;28;20190;-85
2020/12/05 05:46:47;;;;;;;28.53;8.60;;;23.90;81.30;;;;;;5072865;28;20182;-87
2020/12/05 05:49:39;;;;;;;19.17;7.77;;;24.00;81.40;;;;;;5071072;28;20203;-86
2020/12/05 05:52:06;;;;;;;32.60;8.60;;;23.90;81.20;;;;;;5071957;28;20183;-81
2020/12/05 05:54:37;;;;;;;24.23;8.67;;;23.80;81.60;;;;;;5072397;28;21386;-88
2020/12/05 05:57:16;;;;;;;27.90;9.30;;;23.90;82.10;;;;;;5076681;28;20199;-85
2020/12/05 05:59:46;;;;;;;19.03;7.83;;;23.90;82.70;;;;;;5077419;28;20190;-88
2020/12/05 06:02:15;;;;;;;20.53;8.30;;;23.90;82.90;;;;;;5075326;28;20183;-90
2020/12/05 06:04:47;;;;;;;27.70;9.70;;;23.90;83.90;;;;;;5072503;28;20175;-86
2020/12/05 06:07:16;;;;;;;29.13;9.17;;;23.90;84.20;;;;;;5069201;28;20195;-85
2020/12/05 06:09:47;;;;;;;30.07;9.43;;;23.90;84.60;;;;;;5073494;28;20320;-83
2020/12/05 06:12:23;;;;;;;21.83;9.00;;;23.80;84.30;;;;;;5073398;28;20211;-82
2020/12/05 06:14:51;;;;;;;25.60;9.30;;;23.80;85.40;;;;;;5068792;28;20545;-81
2020/12/05 06:17:28;;;;;;;19.77;8.67;;;23.90;85.60;;;;;;5072249;28;20175;-77
2020/12/05 06:19:56;;;;;;;18.93;8.30;;;23.90;85.00;;;;;;5078541;28;20289;-77
2020/12/05 06:22:53;;;;;;;24.27;9.33;;;23.90;84.20;;;;;;5063577;28;20195;-76
2020/12/05 06:25:22;;;;;;;22.97;8.27;;;23.90;84.30;;;;;;5071689;28;20223;-81
2020/12/05 06:28:04;;;;;;;22.67;8.23;;;24.00;84.00;;;;;;5073024;28;20215;-77
2020/12/05 06:30:32;;;;;;;21.23;9.90;;;24.10;83.50;;;;;;5075799;28;20696;-76
2020/12/05 06:32:59;;;;;;;19.37;8.43;;;24.10;83.00;;;;;;5075329;28;20175;-78
2020/12/05 06:35:26;;;;;;;22.37;8.27;;;24.20;82.80;;;;;;5075722;28;20175;-78
2020/12/05 06:37:55;;;;;;;15.23;7.27;;;24.20;82.90;;;;;;5075761;28;20246;-81
2020/12/05 06:40:26;;;;;;;17.13;7.80;;;24.20;82.10;;;;;;5073617;28;20183;-81
2020/12/05 06:42:56;;;;;;;15.00;7.43;;;24.20;81.50;;;;;;5074938;28;20186;-81
2020/12/05 06:45:32;;;;;;;17.77;8.00;;;24.20;81.40;;;;;;5069171;28;20188;-78
2020/12/05 06:48:08;;;;;;;18.47;7.40;;;24.30;81.00;;;;;;5074166;28;20205;-84
2020/12/05 06:50:40;;;;;;;17.10;7.67;;;24.30;81.00;;;;;;5059574;28;20184;-80
2020/12/05 06:53:28;;;;;;;13.33;7.67;;;24.40;80.80;;;;;;5060811;28;20210;-79
2020/12/05 06:55:55;;;;;;;17.83;7.40;;;24.30;80.90;;;;;;5062942;28;20218;-81
2020/12/05 06:58:28;;;;;;;19.37;7.77;;;24.40;81.20;;;;;;5073600;28;20570;-78
2020/12/05 07:00:56;;;;;;;16.73;7.63;;;24.30;81.20;;;;;;5071767;28;20735;-81
2020/12/05 07:03:29;;;;;;;20.87;7.70;;;24.20;81.60;;;;;;5071820;28;20176;-78
2020/12/05 07:05:57;;;;;;;17.93;7.87;;;24.20;81.70;;;;;;5074629;28;20278;-81
2020/12/05 07:08:41;;;;;;;17.93;7.27;;;24.10;82.10;;;;;;5071555;28;20202;-80
2020/12/05 07:11:14;;;;;;;20.90;8.17;;;24.10;82.40;;;;;;5069326;28;20260;-77
2020/12/05 07:13:44;;;;;;;15.60;7.63;;;24.00;82.50;;;;;;5055494;28;20184;-80
2020/12/05 07:16:16;;;;;;;17.63;7.93;;;24.00;82.20;;;;;;5071074;28;20660;-81
2020/12/05 07:18:45;;;;;;;13.27;7.40;;;24.00;82.20;;;;;;5073801;28;20202;-84
2020/12/05 07:21:13;;;;;;;18.03;8.33;;;24.00;82.00;;;;;;5074007;28;20179;-79
2020/12/05 07:23:41;;;;;;;16.97;7.80;;;24.00;82.00;;;;;;5074469;28;20237;-80
2020/12/05 07:26:09;;;;;;;22.07;7.83;;;24.10;81.10;;;;;;5074866;28;20237;-83
2020/12/05 07:28:36;;;;;;;15.10;8.30;;;24.10;80.80;;;;;;5075707;28;20202;-80
2020/12/05 07:31:05;;;;;;;18.47;8.47;;;24.20;80.70;;;;;;5074637;28;20248;-76
2020/12/05 07:33:35;;;;;;;17.77;7.73;;;24.10;81.80;;;;;;5074398;28;20613;-79
2020/12/05 07:36:05;;;;;;;21.77;9.60;;;24.10;81.50;;;;;;5074169;28;20182;-80
2020/12/05 07:38:38;;;;;;;16.60;9.27;;;24.10;82.00;;;;;;5074762;28;20174;-83
2020/12/05 07:41:25;;;;;;;;;;;;;;;;;;;;;
2020/12/05 07:44:02;;;;;;;20.93;9.13;;;24.00;82.70;;;;;;5073494;28;20171;-80
2020/12/05 07:46:31;;;;;;;28.30;14.37;;;23.90;83.10;;;;;;5074339;28;20234;-78
2020/12/05 07:48:58;;;;;;;23.60;10.60;;;23.90;83.20;;;;;;5074324;28;20207;-78
2020/12/05 07:51:26;;;;;;;32.67;17.73;;;23.90;83.70;;;;;;5074376;28;20171;-78
2020/12/05 07:53:53;;;;;;;27.53;15.43;;;23.80;84.20;;;;;;5071515;28;20183;-79
2020/12/05 07:56:22;;;;;;;19.97;9.13;;;23.80;84.60;;;;;;5073833;28;20629;-77
2020/12/05 07:58:55;;;;;;;21.97;9.60;;;23.70;84.60;;;;;;5074036;28;20182;-77
2020/12/05 08:02:10;;;;;;;25.40;9.27;;;23.70;84.80;;;;;;5073963;28;20267;-81
2020/12/05 08:04:48;;;;;;;20.60;9.67;;;23.70;84.60;;;;;;5054725;28;20203;-79
2020/12/05 08:07:28;;;;;;;27.37;13.67;;;23.80;85.20;;;;;;5073378;28;20175;-78
2020/12/05 08:09:55;;;;;;;25.07;11.83;;;23.80;84.50;;;;;;5073226;28;20210;-78
2020/12/05 08:12:35;;;;;;;23.00;12.87;;;23.80;84.40;;;;;;5073725;28;20229;-80
2020/12/05 08:15:03;;;;;;;27.93;10.10;;;23.80;85.00;;;;;;5073556;28;20179;-78
2020/12/05 08:17:38;;;;;;;24.50;9.47;;;23.80;85.20;;;;;;5073932;28;20175;-77
2020/12/05 08:20:05;;;;;;;24.37;10.47;;;23.70;85.70;;;;;;5053810;28;20183;-78
2020/12/05 08:22:36;;;;;;;22.73;9.77;;;23.70;86.20;;;;;;5063683;28;20602;-82
2020/12/05 08:25:05;;;;;;;23.33;11.00;;;23.70;86.70;;;;;;5068214;28;20565;-75
2020/12/05 08:27:34;;;;;;;31.53;12.87;;;23.60;87.10;;;;;;5072373;28;20216;-78
2020/12/05 08:30:02;;;;;;;31.83;11.67;;;23.60;87.60;;;;;;5072439;28;20649;-79
2020/12/05 08:32:29;;;;;;;30.13;11.70;;;23.50;87.90;;;;;;5073221;28;20263;-78
2020/12/05 08:35:07;;;;;;;24.63;11.30;;;23.50;88.10;;;;;;5071795;28;20203;-76
2020/12/05 08:37:45;;;;;;;22.43;10.20;;;23.50;88.00;;;;;;5073530;28;20179;-77
2020/12/05 08:40:19;;;;;;;24.60;10.27;;;23.50;88.00;;;;;;5072453;28;20260;-79
2020/12/05 08:42:48;;;;;;;22.53;10.37;;;23.50;87.80;;;;;;5072528;28;20177;-77
2020/12/05 08:45:17;;;;;;;26.60;11.17;;;23.40;88.30;;;;;;5072869;28;20269;-81
2020/12/05 08:47:46;;;;;;;26.53;11.47;;;23.40;89.80;;;;;;5067402;28;20180;-76
2020/12/05 08:50:33;;;;;;;25.93;10.30;;;23.30;90.40;;;;;;5066185;28;20189;-77
2020/12/05 08:53:03;;;;;;;19.80;10.10;;;23.10;90.80;;;;;;5072788;28;20197;-78
2020/12/05 08:55:32;;;;;;;26.00;10.93;;;23.00;91.00;;;;;;5072404;28;20637;-78
2020/12/05 08:58:04;;;;;;;26.27;10.77;;;23.00;91.20;;;;;;5072075;28;20716;-80
2020/12/05 09:00:34;;;;;;;23.33;11.37;;;23.00;91.10;;;;;;5072760;28;20320;-80
2020/12/05 09:03:04;;;;;;;24.30;10.63;;;23.10;91.00;;;;;;5067935;28;20602;-78
2020/12/05 09:05:31;;;;;;;25.47;10.97;;;23.10;91.30;;;;;;5068181;28;20657;-78
2020/12/05 09:08:02;;;;;;;18.87;9.97;;;23.10;90.80;;;;;;5072894;28;20178;-77
2020/12/05 09:10:30;;;;;;;22.97;10.70;;;23.10;90.50;;;;;;5072738;28;20187;-81
2020/12/05 09:13:06;;;;;;;23.67;10.07;;;23.30;90.50;;;;;;5072253;28;20277;-81
2020/12/05 09:15:35;;;;;;;22.63;10.70;;;23.20;90.50;;;;;;5071502;28;20205;-79
2020/12/05 09:18:03;;;;;;;19.57;10.37;;;23.20;90.50;;;;;;5072048;28;20194;-79
2020/12/05 09:20:30;;;;;;;24.97;11.47;;;23.20;90.70;;;;;;5071967;28;20190;-79
2020/12/05 09:23:02;;;;;;;23.17;10.10;;;23.20;90.70;;;;;;5072706;28;20224;-82
2020/12/05 09:25:35;;;;;;;20.60;10.47;;;23.10;90.90;;;;;;5072255;28;20242;-79
2020/12/05 09:28:14;;;;;;;24.03;10.20;;;23.10;90.90;;;;;;5073296;28;20192;-84
2020/12/05 09:30:41;;;;;;;24.50;11.63;;;23.10;90.90;;;;;;5073414;28;20198;-81
2020/12/05 09:33:15;;;;;;;21.47;9.53;;;23.00;91.20;;;;;;5053700;28;20191;-78
2020/12/05 09:35:43;;;;;;;21.90;11.33;;;23.00;91.70;;;;;;5057574;28;20183;-80
2020/12/05 09:38:11;;;;;;;23.27;10.63;;;23.00;91.80;;;;;;5073909;28;20598;-79
2020/12/05 09:40:38;;;;;;;19.60;10.53;;;22.90;91.90;;;;;;5074242;28;20190;-80
2020/12/05 09:43:06;;;;;;;20.23;9.57;;;22.90;92.40;;;;;;5074292;28;20186;-83
2020/12/05 09:45:33;;;;;;;17.87;9.53;;;22.90;91.60;;;;;;5078494;28;20171;-84
2020/12/05 09:48:01;;;;;;;18.40;9.03;;;22.90;91.80;;;;;;5078586;28;20175;-86
2020/12/05 09:50:28;;;;;;;16.30;8.83;;;22.90;91.70;;;;;;5076503;28;20221;-83
2020/12/05 09:52:57;;;;;;;17.30;9.57;;;22.90;91.30;;;;;;5077470;28;20182;-82
2020/12/05 09:55:24;;;;;;;17.03;9.90;;;22.90;91.10;;;;;;5063605;28;20191;-82
2020/12/05 09:57:52;;;;;;;14.80;9.90;;;22.90;91.50;;;;;;5075189;28;20179;-82
2020/12/05 10:00:19;;;;;;;14.57;8.83;;;22.90;91.60;;;;;;5075981;28;20179;-82
2020/12/05 10:02:47;;;;;;;20.47;9.73;;;22.80;91.60;;;;;;5073560;28;20218;-80
2020/12/05 10:05:14;;;;;;;17.50;9.50;;;22.70;92.00;;;;;;5071767;28;20179;-79
2020/12/05 10:07:42;;;;;;;12.30;8.27;;;22.70;92.10;;;;;;5071933;28;20247;-79
2020/12/05 10:10:10;;;;;;;16.97;9.57;;;22.60;92.10;;;;;;5071757;28;20258;-75
2020/12/05 10:12:38;;;;;;;20.67;9.37;;;22.50;92.50;;;;;;5072555;28;20622;-76
2020/12/05 10:15:07;;;;;;;16.57;8.57;;;22.50;92.90;;;;;;5070685;28;20179;-76
2020/12/05 10:17:34;;;;;;;15.67;9.20;;;22.40;92.80;;;;;;5071789;28;20178;-78
2020/12/05 10:20:03;;;;;;;21.13;9.20;;;22.30;93.10;;;;;;5070858;28;20646;-76
2020/12/05 10:22:30;;;;;;;15.87;8.10;;;22.20;94.40;;;;;;5069242;28;20186;-75
2020/12/05 10:24:58;;;;;;;20.53;8.60;;;22.10;94.50;;;;;;5068896;28;20242;-79
2020/12/05 10:27:25;;;;;;;19.60;10.40;;;22.00;94.50;;;;;;5074061;28;20260;-77
2020/12/05 10:29:55;;;;;;;18.90;9.47;;;22.00;95.00;;;;;;5076227;28;20214;-76
2020/12/05 10:32:23;;;;;;;19.57;9.07;;;21.90;95.70;;;;;;5079337;28;20178;-78
2020/12/05 10:34:50;;;;;;;15.60;8.77;;;21.90;95.70;;;;;;5076266;28;20179;-75
2020/12/05 10:37:20;;;;;;;17.33;7.77;;;21.80;95.80;;;;;;5077049;28;20198;-78
2020/12/05 10:39:48;;;;;;;20.97;7.53;;;21.70;95.90;;;;;;5076512;28;20241;-77
2020/12/05 10:42:18;;;;;;;20.17;7.90;;;21.70;96.10;;;;;;5076557;28;20184;-82
2020/12/05 10:44:45;;;;;;;13.53;6.50;;;21.70;96.20;;;;;;5077716;28;20210;-79
2020/12/05 10:47:13;;;;;;;16.30;6.37;;;21.60;95.90;;;;;;5075997;28;20186;-82
2020/12/05 10:49:40;;;;;;;11.80;4.93;;;21.60;95.80;;;;;;5074841;28;20203;-79
2020/12/05 10:52:07;;;;;;;8.27;4.10;;;21.60;95.50;;;;;;5074963;28;20199;-78
2020/12/05 10:54:46;;;;;;;17.47;7.70;;;21.60;94.90;;;;;;5073204;28;20183;-81
2020/12/05 10:57:17;;;;;;;7.50;4.37;;;21.60;95.50;;;;;;5075340;28;20608;-82
2020/12/05 10:59:44;;;;;;;8.90;4.57;;;21.60;95.30;;;;;;5075065;28;20171;-77
2020/12/05 11:02:11;;;;;;;8.63;4.47;;;21.60;95.40;;;;;;5089699;28;20659;-81
2020/12/05 11:04:39;;;;;;;8.83;4.40;;;21.60;95.50;;;;;;5089572;28;20167;-82
2020/12/05 11:07:06;;;;;;;8.90;3.60;;;21.60;95.30;;;;;;5074979;28;20269;-80
2020/12/05 11:09:34;;;;;;;12.00;5.60;;;21.60;94.30;;;;;;5074898;28;20268;-80
2020/12/05 11:12:01;;;;;;;13.50;4.80;;;21.60;94.50;;;;;;5073201;28;20179;-78
2020/12/05 11:14:28;;;;;;;6.63;2.90;;;21.60;93.60;;;;;;5073541;28;20299;-75
2020/12/05 11:16:59;;;;;;;3.77;2.73;;;21.60;93.70;;;;;;5075052;28;20538;-76
2020/12/05 11:19:26;;;;;;;4.47;2.93;;;21.70;93.70;;;;;;5074552;28;20175;-75
2020/12/05 11:21:53;;;;;;;11.30;2.90;;;21.60;94.10;;;;;;5074206;28;20236;-77
2020/12/05 11:24:21;;;;;;;6.80;2.80;;;21.60;93.80;;;;;;5073803;28;20685;-77
2020/12/05 11:26:48;;;;;;;4.83;2.90;;;21.60;93.80;;;;;;5073315;28;20255;-76
2020/12/05 11:29:15;;;;;;;6.97;2.80;;;21.60;93.50;;;;;;5074303;28;20260;-77
2020/12/05 11:31:45;;;;;;;4.33;2.80;;;21.60;94.00;;;;;;5074319;28;20675;-77
2020/12/05 11:34:13;;;;;;;4.90;2.70;;;21.60;94.20;;;;;;5072983;28;20521;-78
2020/12/05 11:36:44;;;;;;;4.60;2.70;;;21.60;94.20;;;;;;5073711;28;20175;-75
2020/12/05 11:39:11;;;;;;;6.00;2.73;;;21.60;94.30;;;;;;5073269;28;20188;-75
2020/12/05 11:41:39;;;;;;;7.07;2.47;;;21.60;94.30;;;;;;5074355;28;20180;-76
2020/12/05 11:44:07;;;;;;;7.07;2.60;;;21.70;94.40;;;;;;5073553;28;20245;-77
2020/12/05 11:46:34;;;;;;;9.33;3.13;;;21.70;94.40;;;;;;5073878;28;20175;-75
2020/12/05 11:49:01;;;;;;;9.53;2.80;;;21.70;94.00;;;;;;5074149;28;20199;-75
2020/12/05 11:51:30;;;;;;;6.67;3.03;;;21.70;93.70;;;;;;5074393;28;20186;-76
2020/12/05 11:53:57;;;;;;;5.30;2.77;;;21.80;93.70;;;;;;5073719;28;20191;-77
2020/12/05 11:56:24;;;;;;;6.23;2.60;;;21.80;93.50;;;;;;5060283;28;20214;-76
2020/12/05 11:58:52;;;;;;;3.93;2.23;;;22.00;92.60;;;;;;5073655;28;20170;-75
2020/12/05 12:01:19;;;;;;;5.43;1.97;;;22.10;92.30;;;;;;5073108;28;20218;-78
2020/12/05 12:03:46;;;;;;;9.73;3.20;;;22.20;92.30;;;;;;5072748;28;20175;-76
2020/12/05 12:06:15;;;;;;;5.87;2.37;;;22.10;92.20;;;;;;5073749;28;20176;-78
2020/12/05 12:08:44;;;;;;;5.77;2.47;;;22.10;92.60;;;;;;5073885;28;20261;-76
2020/12/05 12:11:20;;;;;;;6.83;2.17;;;22.10;92.70;;;;;;5073688;28;20297;-78
2020/12/05 12:13:48;;;;;;;5.27;2.50;;;22.10;92.50;;;;;;5073564;28;20175;-77
2020/12/05 12:16:16;;;;;;;6.47;1.97;;;22.10;92.20;;;;;;5072336;28;20233;-79
2020/12/05 12:18:45;;;;;;;5.97;2.37;;;22.10;91.90;;;;;;5072355;28;20233;-79
2020/12/05 12:21:12;;;;;;;4.47;1.80;;;22.10;92.20;;;;;;5073649;28;20698;-77
2020/12/05 12:23:40;;;;;;;3.57;1.87;;;22.10;91.90;;;;;;5066451;28;20261;-75
2020/12/05 12:26:07;;;;;;;5.30;2.00;;;22.10;91.80;;;;;;5056435;28;20558;-79
2020/12/05 12:28:35;;;;;;;6.03;1.80;;;22.10;91.70;;;;;;5071473;28;20213;-78
2020/12/05 12:31:02;;;;;;;4.70;1.90;;;22.10;91.90;;;;;;5072401;28;20179;-76
2020/12/05 12:33:29;;;;;;;5.13;1.83;;;22.10;92.00;;;;;;5072921;28;20195;-75
2020/12/05 12:35:57;;;;;;;4.83;1.90;;;22.10;92.10;;;;;;5072945;28;20194;-76
2020/12/05 12:38:24;;;;;;;4.93;1.77;;;22.00;92.00;;;;;;5073084;28;20187;-78
2020/12/05 12:40:51;;;;;;;5.73;1.73;;;21.90;92.20;;;;;;5073440;28;20180;-78
2020/12/05 12:43:19;;;;;;;4.77;2.00;;;21.90;92.40;;;;;;5072859;28;20183;-78
2020/12/05 12:45:47;;;;;;;6.80;2.47;;;21.90;92.40;;;;;;5072588;28;20175;-77
2020/12/05 12:50:48;;;;;;;3.07;1.43;;;21.80;92.70;;;;;;5073250;28;20537;-75
2020/12/05 12:53:15;;;;;;;5.60;2.10;;;21.80;92.40;;;;;;5073145;28;20262;-78